Time;durP1;ratioP1;P1;durP2;ratioP2;P2;SDS_P1;SDS_P2;PMS_P1;PMS_P2;Temp;Humidity;BMP_temperature;BMP_pressure;BME280_temperature;BME280_humidity;BME280_pressure;Samples;Min_cycle;Max_cycle;Signal;HPM_P1;HPM_P2
2023/03/31 00:01:35;;;;;;;0.60;0.60;;;-1.20;99.90;;;;;;5076526;28;20658;-71
2023/03/31 00:04:03;;;;;;;0.80;0.80;;;-1.20;99.90;;;;;;5094388;28;20724;-70
2023/03/31 00:06:31;;;;;;;1.60;1.48;;;-1.20;99.90;;;;;;5094643;28;20313;-71
2023/03/31 00:09:00;;;;;;;0.80;0.80;;;-1.20;99.90;;;;;;5094730;28;20231;-70
2023/03/31 00:11:26;;;;;;;0.70;0.70;;;-1.20;99.90;;;;;;5094407;28;20234;-70
2023/03/31 00:13:52;;;;;;;0.70;0.70;;;-1.20;99.90;;;;;;5094812;28;20655;-70
2023/03/31 00:16:18;;;;;;;0.70;0.70;;;-1.20;99.90;;;;;;5094627;28;20195;-71
2023/03/31 00:18:46;;;;;;;0.65;0.65;;;-1.20;99.90;;;;;;5094563;28;20219;-71
2023/03/31 00:21:24;;;;;;;0.70;0.70;;;-1.20;99.90;;;;;;5076298;28;20701;-70
2023/03/31 00:23:57;;;;;;;0.75;0.75;;;-1.20;99.90;;;;;;5094741;28;20187;-70
2023/03/31 00:26:26;;;;;;;0.60;0.60;;;-1.20;99.90;;;;;;5094059;28;20701;-70
2023/03/31 00:28:53;;;;;;;0.70;0.70;;;-1.20;99.90;;;;;;5093815;28;20203;-71
2023/03/31 00:31:21;;;;;;;0.52;0.52;;;-1.20;99.90;;;;;;5075702;28;20199;-70
2023/03/31 00:33:46;;;;;;;0.75;0.75;;;-1.20;99.90;;;;;;5094441;28;20227;-70
2023/03/31 00:36:16;;;;;;;0.60;0.60;;;-1.30;99.90;;;;;;5076073;28;20212;-70
2023/03/31 00:38:45;;;;;;;0.60;0.60;;;-1.20;99.90;;;;;;5093981;28;20533;-70
2023/03/31 00:41:11;;;;;;;0.60;0.60;;;-1.20;99.90;;;;;;5094092;28;20275;-70
2023/03/31 00:43:37;;;;;;;0.70;0.70;;;-1.30;99.90;;;;;;5075868;28;20282;-70
2023/03/31 00:46:16;;;;;;;0.70;0.70;;;-1.30;99.90;;;;;;5094160;28;20206;-70
2023/03/31 00:48:49;;;;;;;0.80;0.80;;;-1.30;99.90;;;;;;5093879;28;20599;-71
2023/03/31 00:51:16;;;;;;;0.60;0.60;;;-1.30;99.90;;;;;;5074184;28;20245;-70
2023/03/31 00:53:45;;;;;;;1.33;1.23;;;-1.30;99.90;;;;;;5093288;28;20212;-70
2023/03/31 00:56:15;;;;;;;0.70;0.70;;;-1.30;99.90;;;;;;5075395;28;20663;-70
2023/03/31 00:58:43;;;;;;;0.70;0.70;;;-1.30;99.90;;;;;;5075613;28;20207;-70
2023/03/31 01:01:13;;;;;;;0.70;0.70;;;-1.30;99.90;;;;;;5076323;28;20226;-70
2023/03/31 01:03:41;;;;;;;0.82;0.82;;;-1.30;99.90;;;;;;5109394;22;20679;-71
2023/03/31 01:06:09;;;;;;;0.65;0.65;;;-1.30;99.90;;;;;;5093066;28;20199;-71
2023/03/31 01:08:37;;;;;;;0.70;0.70;;;-1.40;99.90;;;;;;5092845;28;20646;-71
2023/03/31 01:11:08;;;;;;;0.60;0.60;;;-1.30;99.90;;;;;;5092940;28;20199;-71
2023/03/31 01:13:36;;;;;;;0.70;0.70;;;-1.30;99.90;;;;;;5092662;28;20222;-71
2023/03/31 01:16:02;;;;;;;0.70;0.70;;;-1.40;99.90;;;;;;5092831;28;20213;-71
2023/03/31 01:18:28;;;;;;;0.70;0.70;;;-1.40;99.90;;;;;;5092634;28;20196;-71
2023/03/31 01:21:32;;;;;;;0.60;0.60;;;-1.40;99.90;;;;;;5092904;28;20241;-71
2023/03/31 01:24:36;;;;;;;0.60;0.60;;;-1.30;99.90;;;;;;5010633;28;20272;-71
2023/03/31 01:27:40;;;;;;;0.68;0.68;;;-1.30;99.90;;;;;;5010802;28;20249;-71
2023/03/31 01:30:27;;;;;;;0.70;0.70;;;-1.30;99.90;;;;;;5005398;28;20295;-71
2023/03/31 01:33:15;;;;;;;0.70;0.70;;;-1.30;99.90;;;;;;5080470;28;20199;-71
2023/03/31 01:36:11;;;;;;;0.75;0.75;;;-1.40;99.90;;;;;;5092483;28;20338;-71
2023/03/31 01:39:08;;;;;;;0.75;0.75;;;-1.30;99.90;;;;;;5092525;28;20204;-71
2023/03/31 01:41:55;;;;;;;0.63;0.63;;;-1.30;99.90;;;;;;5092323;28;20218;-71
2023/03/31 01:44:41;;;;;;;0.70;0.70;;;-1.30;99.90;;;;;;5092300;28;20189;-72
2023/03/31 01:47:13;;;;;;;0.80;0.80;;;-1.30;99.90;;;;;;5092570;28;20184;-71
2023/03/31 01:49:42;;;;;;;0.60;0.60;;;-1.40;99.90;;;;;;5092365;28;20230;-71
2023/03/31 01:52:27;;;;;;;0.70;0.70;;;-1.40;99.90;;;;;;5092496;28;20192;-71
2023/03/31 01:55:20;;;;;;;0.70;0.70;;;-1.40;99.90;;;;;;5092356;28;20184;-71
2023/03/31 01:58:11;;;;;;;0.70;0.70;;;-1.40;99.90;;;;;;5072262;28;20681;-71
2023/03/31 02:01:00;;;;;;;0.68;0.68;;;-1.40;99.90;;;;;;5080805;28;20236;-71
2023/03/31 02:03:36;;;;;;;0.73;0.73;;;-1.40;99.90;;;;;;5111698;28;20279;-71
2023/03/31 02:06:13;;;;;;;0.60;0.60;;;-1.40;99.90;;;;;;5115026;28;20191;-71
2023/03/31 02:08:49;;;;;;;0.60;0.60;;;-1.30;99.90;;;;;;5117310;28;20211;-71
2023/03/31 02:11:15;;;;;;;0.70;0.70;;;-1.30;99.90;;;;;;5102026;28;20201;-71
2023/03/31 02:13:44;;;;;;;0.63;0.63;;;-1.30;99.90;;;;;;5078579;28;20651;-71
2023/03/31 02:16:17;;;;;;;0.68;0.68;;;-1.30;99.90;;;;;;5097025;28;20227;-71
2023/03/31 02:18:45;;;;;;;0.52;0.52;;;-1.40;99.90;;;;;;5078777;28;20197;-71
2023/03/31 02:21:13;;;;;;;0.60;0.60;;;-1.40;99.90;;;;;;5096758;28;20192;-71
2023/03/31 02:23:40;;;;;;;0.80;0.80;;;-1.30;99.90;;;;;;5096653;28;20207;-71
2023/03/31 02:26:37;;;;;;;0.60;0.60;;;-1.40;99.90;;;;;;5096558;28;20199;-71
2023/03/31 02:29:03;;;;;;;0.85;0.85;;;-1.40;99.90;;;;;;5080559;28;20686;-70
2023/03/31 02:31:40;;;;;;;0.77;0.77;;;-1.40;99.90;;;;;;5096571;28;20188;-71
2023/03/31 02:34:05;;;;;;;0.70;0.70;;;-1.40;99.90;;;;;;5096679;28;20188;-71
2023/03/31 02:36:33;;;;;;;0.77;0.77;;;-1.40;99.90;;;;;;5096201;28;20709;-71
2023/03/31 02:39:23;;;;;;;0.63;0.63;;;-1.40;99.90;;;;;;5096420;28;20249;-71
2023/03/31 02:41:49;;;;;;;0.70;0.70;;;-1.40;99.90;;;;;;5096336;28;20650;-71
2023/03/31 02:44:16;;;;;;;0.70;0.70;;;-1.40;99.90;;;;;;5096400;28;20210;-70
2023/03/31 02:46:43;;;;;;;0.80;0.80;;;-1.40;99.90;;;;;;5077723;28;20287;-71
2023/03/31 02:49:10;;;;;;;0.80;0.80;;;-1.40;99.90;;;;;;5096289;28;20249;-71
2023/03/31 02:52:10;;;;;;;0.70;0.70;;;-1.40;99.90;;;;;;5095926;28;20223;-71
2023/03/31 02:55:01;;;;;;;0.73;0.73;;;-1.40;99.90;;;;;;5047348;28;20207;-71
2023/03/31 02:58:00;;;;;;;0.70;0.70;;;-1.50;99.90;;;;;;5077664;28;20685;-71
2023/03/31 03:00:50;;;;;;;0.52;0.52;;;-1.50;99.90;;;;;;5074471;28;20208;-70
2023/03/31 03:03:42;;;;;;;0.68;0.68;;;-1.50;99.90;;;;;;5093305;28;20200;-71
2023/03/31 03:06:31;;;;;;;0.70;0.70;;;-1.50;99.90;;;;;;5095255;28;20216;-70
2023/03/31 03:09:09;;;;;;;0.80;0.80;;;-1.50;99.90;;;;;;5054466;28;20228;-70
2023/03/31 03:12:11;;;;;;;0.70;0.70;;;-1.50;99.90;;;;;;5095789;28;20591;-71
2023/03/31 03:14:42;;;;;;;0.60;0.60;;;-1.60;99.90;;;;;;5095562;28;20196;-70
2023/03/31 03:17:17;;;;;;;0.60;0.60;;;-1.60;99.90;;;;;;5094788;28;20199;-71
2023/03/31 03:19:43;;;;;;;0.70;0.70;;;-1.60;99.90;;;;;;5077818;28;20192;-71
2023/03/31 03:22:09;;;;;;;0.55;0.55;;;-1.60;99.90;;;;;;5095357;28;20722;-71
2023/03/31 03:24:34;;;;;;;0.70;0.70;;;-1.60;99.90;;;;;;5095150;28;20195;-71
2023/03/31 03:27:00;;;;;;;0.63;0.63;;;-1.60;99.90;;;;;;5076832;28;20196;-71
2023/03/31 03:29:27;;;;;;;0.70;0.70;;;-1.60;99.90;;;;;;5095117;28;20646;-71
2023/03/31 03:31:53;;;;;;;0.63;0.63;;;-1.60;99.90;;;;;;5095324;28;20241;-71
2023/03/31 03:34:19;;;;;;;0.70;0.70;;;-1.60;99.90;;;;;;5095453;28;20695;-71
2023/03/31 03:36:45;;;;;;;0.70;0.70;;;-1.70;99.90;;;;;;5095609;28;20280;-71
2023/03/31 03:39:11;;;;;;;0.70;0.70;;;-1.80;99.90;;;;;;5095323;28;20279;-71
2023/03/31 03:41:37;;;;;;;0.55;0.55;;;-1.70;99.90;;;;;;5095143;28;20334;-71
2023/03/31 03:44:03;;;;;;;0.60;0.60;;;-1.70;99.90;;;;;;5095334;28;20600;-71
2023/03/31 03:46:29;;;;;;;0.70;0.70;;;-1.80;99.90;;;;;;5095154;28;20192;-70
2023/03/31 03:48:55;;;;;;;0.70;0.70;;;-1.80;99.90;;;;;;5095014;28;20283;-71
2023/03/31 03:51:21;;;;;;;0.80;0.80;;;-1.80;99.90;;;;;;5076695;28;20650;-71
2023/03/31 03:53:47;;;;;;;0.70;0.70;;;-1.80;99.90;;;;;;5076998;28;20188;-71
2023/03/31 03:56:13;;;;;;;1.15;1.15;;;-1.80;99.90;;;;;;5094960;28;20191;-71
2023/03/31 03:58:38;;;;;;;0.60;0.60;;;-1.80;99.90;;;;;;5076674;28;20211;-71
2023/03/31 04:01:04;;;;;;;0.60;0.60;;;-1.90;99.90;;;;;;5094763;28;20275;-71
2023/03/31 04:03:30;;;;;;;0.70;0.70;;;-1.90;99.90;;;;;;5094042;28;20204;-71
2023/03/31 04:05:56;;;;;;;0.73;0.73;;;-1.80;99.90;;;;;;5094091;28;20295;-71
2023/03/31 04:08:22;;;;;;;0.60;0.60;;;-1.80;99.90;;;;;;5076239;28;20216;-71
2023/03/31 04:10:49;;;;;;;0.70;0.70;;;-1.80;99.90;;;;;;5076581;28;20192;-71
2023/03/31 04:13:16;;;;;;;0.90;0.90;;;-1.80;99.90;;;;;;5094645;28;20195;-71
2023/03/31 04:15:42;;;;;;;4.68;3.05;;;-1.80;99.90;;;;;;5094394;28;20687;-71
2023/03/31 04:18:09;;;;;;;1.80;1.70;;;-1.80;99.90;;;;;;5094567;28;20207;-71
2023/03/31 04:20:36;;;;;;;1.25;1.23;;;-1.80;99.90;;;;;;5076073;28;20294;-71
2023/03/31 04:23:04;;;;;;;0.82;0.82;;;-1.80;99.90;;;;;;5094299;28;20651;-70
2023/03/31 04:25:30;;;;;;;1.58;1.40;;;-1.80;99.90;;;;;;5094056;28;20203;-71
2023/03/31 04:27:56;;;;;;;0.90;0.90;;;-1.70;99.90;;;;;;5094410;28;20208;-71
2023/03/31 04:30:29;;;;;;;0.80;0.80;;;-1.70;99.90;;;;;;5075778;28;20194;-72
2023/03/31 04:33:01;;;;;;;0.80;0.80;;;-1.70;99.90;;;;;;5076176;28;20261;-71
2023/03/31 04:35:48;;;;;;;0.70;0.70;;;-1.80;99.90;;;;;;5094009;28;20717;-71
2023/03/31 04:38:17;;;;;;;0.85;0.85;;;-1.80;99.90;;;;;;5094259;28;20196;-71
2023/03/31 04:40:45;;;;;;;0.82;0.82;;;-1.80;99.90;;;;;;5094100;28;20199;-71
2023/03/31 04:43:10;;;;;;;0.80;0.80;;;-1.80;99.90;;;;;;5094356;28;20211;-71
2023/03/31 04:45:36;;;;;;;0.70;0.70;;;-1.80;99.90;;;;;;5093629;28;20631;-71
2023/03/31 04:48:02;;;;;;;0.80;0.80;;;-1.80;99.90;;;;;;5094060;28;20208;-71
2023/03/31 04:50:27;;;;;;;0.77;0.77;;;-1.80;99.90;;;;;;5093722;28;20188;-71
2023/03/31 04:52:53;;;;;;;0.77;0.77;;;-1.80;99.90;;;;;;5094149;28;20193;-71
2023/03/31 04:55:19;;;;;;;0.70;0.70;;;-1.80;99.90;;;;;;5074822;28;20241;-72
2023/03/31 04:57:45;;;;;;;0.68;0.68;;;-1.80;99.90;;;;;;5075674;28;20199;-70
2023/03/31 05:00:11;;;;;;;0.73;0.73;;;-1.80;99.90;;;;;;5075325;28;20207;-71
2023/03/31 05:02:37;;;;;;;0.70;0.70;;;-1.80;99.90;;;;;;5093391;28;20256;-71
2023/03/31 05:05:03;;;;;;;0.60;0.60;;;-1.70;99.90;;;;;;5093299;28;20224;-71
2023/03/31 05:07:29;;;;;;;0.75;0.75;;;-1.70;99.90;;;;;;5093459;28;20279;-71
2023/03/31 05:09:55;;;;;;;0.70;0.70;;;-1.80;99.90;;;;;;5093544;28;20210;-71
2023/03/31 05:12:20;;;;;;;0.70;0.70;;;-1.80;99.90;;;;;;5093373;28;20192;-71
2023/03/31 05:14:46;;;;;;;0.60;0.60;;;-1.70;99.90;;;;;;5075378;28;20197;-71
2023/03/31 05:17:12;;;;;;;0.70;0.70;;;-1.70;99.90;;;;;;5075090;28;20245;-71
2023/03/31 05:19:38;;;;;;;0.82;0.82;;;-1.70;99.90;;;;;;5074967;28;20767;-71
2023/03/31 05:22:04;;;;;;;0.80;0.80;;;-1.70;99.90;;;;;;5074951;28;20693;-71
2023/03/31 05:24:30;;;;;;;0.73;0.73;;;-1.60;99.90;;;;;;5093033;28;20188;-71
2023/03/31 05:26:56;;;;;;;0.80;0.80;;;-1.60;99.90;;;;;;5093606;28;20192;-71
2023/03/31 05:29:23;;;;;;;0.60;0.60;;;-1.60;99.90;;;;;;5092593;28;20556;-72
2023/03/31 05:31:48;;;;;;;0.57;0.57;;;-1.50;99.90;;;;;;5092695;28;20188;-71
2023/03/31 05:34:15;;;;;;;0.60;0.60;;;-1.50;99.90;;;;;;5075084;28;20242;-72
2023/03/31 05:36:42;;;;;;;0.60;0.60;;;-1.50;99.90;;;;;;5074960;28;20204;-71
2023/03/31 05:39:08;;;;;;;0.60;0.60;;;-1.50;99.90;;;;;;5093202;28;20195;-71
2023/03/31 05:41:34;;;;;;;0.60;0.60;;;-1.40;99.90;;;;;;5092012;28;20192;-71
2023/03/31 05:44:00;;;;;;;0.65;0.65;;;-1.30;99.90;;;;;;5093215;28;20184;-71
2023/03/31 05:46:27;;;;;;;0.60;0.60;;;-1.30;99.90;;;;;;5093011;28;20188;-71
2023/03/31 05:48:53;;;;;;;0.70;0.70;;;-1.20;99.90;;;;;;5093146;28;20618;-71
2023/03/31 05:51:19;;;;;;;0.77;0.77;;;-1.30;99.90;;;;;;5092870;28;20188;-71
2023/03/31 05:53:45;;;;;;;0.70;0.70;;;-1.20;99.90;;;;;;5093009;28;20559;-72
2023/03/31 05:56:11;;;;;;;0.70;0.70;;;-1.10;99.90;;;;;;5092895;28;20204;-71
2023/03/31 05:58:37;;;;;;;0.70;0.70;;;-1.20;99.90;;;;;;5092689;28;20243;-71
2023/03/31 06:01:12;;;;;;;0.80;0.80;;;-1.10;99.90;;;;;;5092920;28;20192;-71
2023/03/31 06:03:40;;;;;;;0.70;0.70;;;-1.10;99.90;;;;;;5092342;28;20356;-71
2023/03/31 06:06:08;;;;;;;0.60;0.60;;;-1.00;99.90;;;;;;5074779;28;20288;-71
2023/03/31 06:08:36;;;;;;;0.70;0.70;;;-1.00;99.90;;;;;;5074838;28;20224;-71
2023/03/31 06:11:10;;;;;;;0.73;0.73;;;-1.00;99.90;;;;;;5092780;28;20271;-71
2023/03/31 06:13:36;;;;;;;0.55;0.55;;;-0.90;99.90;;;;;;5092559;28;20192;-71
2023/03/31 06:16:03;;;;;;;0.65;0.65;;;-0.90;99.90;;;;;;5092343;28;20211;-71
2023/03/31 06:18:31;;;;;;;0.70;0.70;;;-0.90;99.90;;;;;;5092304;28;20287;-71
2023/03/31 06:20:57;;;;;;;0.70;0.70;;;-0.80;99.90;;;;;;5092601;28;20196;-70
2023/03/31 06:23:24;;;;;;;0.60;0.60;;;-0.90;99.90;;;;;;5092645;28;20211;-71
2023/03/31 06:25:50;;;;;;;0.65;0.65;;;-0.90;99.90;;;;;;5080231;28;20788;-71
2023/03/31 06:28:16;;;;;;;0.70;0.70;;;-0.80;99.90;;;;;;5054604;28;20220;-71
2023/03/31 06:30:41;;;;;;;0.70;0.70;;;-0.90;99.90;;;;;;5072310;28;20189;-71
2023/03/31 06:33:07;;;;;;;1.38;1.30;;;-0.80;99.90;;;;;;5072370;28;20196;-71
2023/03/31 06:35:37;;;;;;;1.35;1.25;;;-0.80;99.90;;;;;;5072398;28;20218;-71
2023/03/31 06:38:02;;;;;;;0.80;0.80;;;-0.80;99.90;;;;;;5086558;28;20185;-71
2023/03/31 06:40:29;;;;;;;1.02;0.93;;;-0.80;99.90;;;;;;5092488;28;20211;-71
2023/03/31 06:42:54;;;;;;;1.52;1.42;;;-0.70;99.90;;;;;;5092343;28;20595;-72
2023/03/31 06:45:20;;;;;;;0.70;0.70;;;-0.60;99.90;;;;;;5092224;28;20204;-72
2023/03/31 06:47:46;;;;;;;2.35;2.10;;;-0.60;99.90;;;;;;5092736;28;20263;-74
2023/03/31 06:50:12;;;;;;;0.80;0.80;;;-0.60;99.90;;;;;;5074060;28;20344;-72
2023/03/31 06:52:39;;;;;;;0.70;0.70;;;-0.50;99.90;;;;;;5075280;28;20286;-72
2023/03/31 06:55:06;;;;;;;0.60;0.60;;;-0.60;99.90;;;;;;5095712;28;20181;-72
2023/03/31 06:57:32;;;;;;;0.65;0.65;;;-0.50;99.90;;;;;;5095606;28;20579;-72
2023/03/31 06:59:59;;;;;;;0.98;0.98;;;-0.40;99.90;;;;;;5078020;28;20234;-71
2023/03/31 07:02:25;;;;;;;0.60;0.60;;;-0.50;99.90;;;;;;5095769;28;20192;-72
2023/03/31 07:04:51;;;;;;;0.77;0.77;;;-0.40;99.90;;;;;;5077312;28;20228;-72
2023/03/31 07:07:16;;;;;;;0.50;0.50;;;-0.30;99.90;;;;;;5095782;28;20691;-71
2023/03/31 07:09:42;;;;;;;0.70;0.70;;;-0.30;99.90;;;;;;5074744;28;20218;-71
2023/03/31 07:12:09;;;;;;;0.60;0.60;;;-0.40;99.90;;;;;;5075566;28;20181;-72
2023/03/31 07:14:35;;;;;;;0.70;0.70;;;-0.30;99.90;;;;;;5075361;28;20185;-71
2023/03/31 07:17:01;;;;;;;0.60;0.60;;;-0.20;99.90;;;;;;5075584;28;20224;-71
2023/03/31 07:19:27;;;;;;;0.60;0.60;;;-0.20;99.90;;;;;;5075001;28;20201;-71
2023/03/31 07:21:53;;;;;;;0.52;0.52;;;-0.10;99.90;;;;;;5075491;28;20554;-71
2023/03/31 07:24:19;;;;;;;0.70;0.70;;;-0.10;99.90;;;;;;5075170;28;20224;-72
2023/03/31 07:26:45;;;;;;;0.80;0.80;;;0.00;99.90;;;;;;5055415;28;20240;-72
2023/03/31 07:29:10;;;;;;;0.55;0.55;;;0.20;99.90;;;;;;5055123;28;20292;-71
2023/03/31 07:31:36;;;;;;;0.65;0.65;;;0.40;99.90;;;;;;5037529;28;20204;-71
2023/03/31 07:34:03;;;;;;;0.65;0.65;;;0.40;99.90;;;;;;5066382;28;20262;-71
2023/03/31 07:36:30;;;;;;;0.65;0.65;;;0.40;99.90;;;;;;5074031;28;20195;-71
2023/03/31 07:38:56;;;;;;;0.85;0.85;;;0.60;99.90;;;;;;5056996;28;20674;-72
2023/03/31 07:41:22;;;;;;;0.60;0.60;;;0.50;99.90;;;;;;5074629;28;20193;-72
2023/03/31 07:43:48;;;;;;;0.60;0.60;;;0.60;99.90;;;;;;5073942;28;20197;-71
2023/03/31 07:46:25;;;;;;;3.47;1.63;;;0.70;99.90;;;;;;5057032;28;20293;-71
2023/03/31 07:48:51;;;;;;;0.70;0.70;;;0.60;99.90;;;;;;5072599;28;20203;-72
2023/03/31 07:51:21;;;;;;;0.70;0.70;;;0.40;99.90;;;;;;5095039;28;20624;-72
2023/03/31 07:53:51;;;;;;;0.80;0.80;;;0.40;99.90;;;;;;5095075;28;20188;-71
2023/03/31 07:56:18;;;;;;;0.60;0.60;;;0.40;99.90;;;;;;5094869;28;20558;-71
2023/03/31 07:58:45;;;;;;;0.70;0.70;;;0.20;99.90;;;;;;5094899;28;20250;-72
2023/03/31 08:01:15;;;;;;;0.65;0.65;;;0.30;99.90;;;;;;5076590;28;20265;-71
2023/03/31 08:03:42;;;;;;;0.60;0.60;;;0.20;99.90;;;;;;5093725;28;20223;-71
2023/03/31 08:06:08;;;;;;;0.60;0.60;;;0.40;99.90;;;;;;5094622;28;20204;-71
2023/03/31 08:08:37;;;;;;;0.52;0.52;;;0.70;99.90;;;;;;5094574;28;20208;-72
2023/03/31 08:11:03;;;;;;;0.68;0.68;;;1.00;99.90;;;;;;5094816;28;20208;-72
2023/03/31 08:13:29;;;;;;;0.60;0.60;;;1.30;99.90;;;;;;5094124;28;20245;-72
2023/03/31 08:15:55;;;;;;;0.60;0.60;;;1.50;99.90;;;;;;5094569;28;20191;-72
2023/03/31 08:18:21;;;;;;;0.80;0.80;;;1.60;99.90;;;;;;5094423;28;20206;-72
2023/03/31 08:20:48;;;;;;;0.60;0.60;;;1.90;99.90;;;;;;5075773;28;20283;-72
2023/03/31 08:23:15;;;;;;;0.75;0.75;;;1.90;99.90;;;;;;5094369;28;20184;-72
2023/03/31 08:25:40;;;;;;;0.55;0.55;;;1.70;99.90;;;;;;5082964;28;20205;-72
2023/03/31 08:28:09;;;;;;;0.68;0.68;;;1.80;99.90;;;;;;5074224;28;20262;-71
2023/03/31 08:30:37;;;;;;;0.60;0.60;;;1.80;99.90;;;;;;5066880;28;20337;-72
2023/03/31 08:33:03;;;;;;;0.52;0.52;;;1.40;99.90;;;;;;5074032;28;20188;-72
2023/03/31 08:35:29;;;;;;;0.60;0.60;;;1.30;99.90;;;;;;5073746;28;20193;-72
2023/03/31 08:37:54;;;;;;;0.60;0.60;;;1.20;99.90;;;;;;5073985;28;20199;-72
2023/03/31 08:40:24;;;;;;;0.80;0.80;;;1.20;99.90;;;;;;5073758;28;20200;-72
2023/03/31 08:43:13;;;;;;;0.60;0.60;;;1.30;99.90;;;;;;5055905;28;20250;-72
2023/03/31 08:45:44;;;;;;;0.70;0.70;;;1.60;99.90;;;;;;5093855;28;20697;-72
2023/03/31 08:48:12;;;;;;;0.80;0.80;;;1.90;99.90;;;;;;5093968;28;20195;-72
2023/03/31 08:50:49;;;;;;;0.75;0.75;;;2.00;99.90;;;;;;5093829;28;20736;-72
2023/03/31 08:53:39;;;;;;;0.85;0.85;;;1.90;99.90;;;;;;5093977;28;20263;-72
2023/03/31 08:56:14;;;;;;;0.70;0.70;;;2.30;99.90;;;;;;5093813;28;20188;-73
2023/03/31 08:58:45;;;;;;;0.60;0.60;;;2.60;99.90;;;;;;5093739;28;20199;-72
2023/03/31 09:01:31;;;;;;;0.60;0.60;;;2.90;99.90;;;;;;5093671;28;20192;-72
2023/03/31 09:04:31;;;;;;;0.70;0.70;;;3.10;99.90;;;;;;5093312;28;20683;-73
2023/03/31 09:07:09;;;;;;;0.60;0.60;;;3.00;99.90;;;;;;5093806;28;20203;-73
2023/03/31 09:10:12;;;;;;;0.80;0.80;;;3.40;99.90;;;;;;5093195;28;20218;-72
2023/03/31 09:13:03;;;;;;;0.60;0.60;;;3.90;99.90;;;;;;5093377;28;20276;-73
2023/03/31 09:15:32;;;;;;;0.60;0.60;;;4.20;99.90;;;;;;5036820;28;20261;-73
2023/03/31 09:18:17;;;;;;;0.80;0.80;;;4.30;99.90;;;;;;5093221;28;20196;-73
2023/03/31 09:20:48;;;;;;;1.70;1.45;;;4.90;99.90;;;;;;5093367;28;20653;-73
2023/03/31 09:23:58;;;;;;;0.60;0.60;;;5.10;99.90;;;;;;5074576;28;20196;-73
2023/03/31 09:26:28;;;;;;;0.65;0.65;;;5.60;99.90;;;;;;5086811;28;20215;-73
2023/03/31 09:28:57;;;;;;;0.60;0.60;;;5.50;99.90;;;;;;5093527;28;20207;-73
2023/03/31 09:31:24;;;;;;;0.80;0.80;;;5.70;99.90;;;;;;5093200;28;20196;-74
2023/03/31 09:33:53;;;;;;;0.70;0.70;;;6.10;99.90;;;;;;5093141;28;20267;-74
2023/03/31 09:36:23;;;;;;;0.60;0.60;;;6.20;99.90;;;;;;5092966;28;20291;-74
2023/03/31 09:38:50;;;;;;;0.70;0.70;;;5.90;99.90;;;;;;5092608;28;20192;-74
2023/03/31 09:41:17;;;;;;;0.60;0.60;;;5.40;99.90;;;;;;5092602;28;20204;-73
2023/03/31 09:43:45;;;;;;;0.60;0.60;;;5.30;99.90;;;;;;5092562;28;20195;-73
2023/03/31 09:46:32;;;;;;;0.60;0.60;;;5.30;99.90;;;;;;5093094;28;20194;-73
2023/03/31 09:49:20;;;;;;;0.70;0.70;;;5.20;99.90;;;;;;5092878;28;20678;-74
2023/03/31 09:51:59;;;;;;;0.60;0.60;;;5.40;99.90;;;;;;5092526;28;20188;-74
2023/03/31 09:54:35;;;;;;;0.60;0.60;;;6.00;99.70;;;;;;5092189;28;20191;-73
2023/03/31 09:57:01;;;;;;;0.57;0.57;;;5.70;99.30;;;;;;5074239;28;20670;-72
2023/03/31 09:59:34;;;;;;;0.70;0.70;;;5.20;99.90;;;;;;5092513;28;20203;-74
2023/03/31 10:02:36;;;;;;;0.60;0.60;;;4.90;99.40;;;;;;5074653;28;20297;-72
2023/03/31 10:05:16;;;;;;;2.50;1.40;;;4.80;99.60;;;;;;5010644;28;20230;-73
2023/03/31 10:07:42;;;;;;;0.50;0.50;;;4.70;99.90;;;;;;4979021;28;20300;-73
2023/03/31 10:10:19;;;;;;;0.60;0.60;;;4.70;99.90;;;;;;4991260;28;20314;-74
2023/03/31 10:12:51;;;;;;;1.05;0.80;;;4.40;99.90;;;;;;4991331;28;20203;-73
2023/03/31 10:15:25;;;;;;;0.60;0.60;;;4.80;98.90;;;;;;4930197;28;20229;-73
2023/03/31 10:17:51;;;;;;;0.68;0.68;;;4.80;97.50;;;;;;4923282;29;20193;-74
2023/03/31 10:20:26;;;;;;;0.70;0.70;;;4.70;97.10;;;;;;4915268;29;20236;-76
2023/03/31 10:22:52;;;;;;;0.55;0.55;;;4.40;96.90;;;;;;4940073;29;20225;-74
2023/03/31 10:25:22;;;;;;;0.60;0.60;;;4.50;96.80;;;;;;4933109;29;20601;-74
2023/03/31 10:27:53;;;;;;;0.68;0.68;;;4.60;96.10;;;;;;4919899;29;20197;-72
2023/03/31 10:30:29;;;;;;;0.50;0.50;;;4.60;96.50;;;;;;4936783;29;20340;-72
2023/03/31 10:32:55;;;;;;;0.50;0.50;;;4.50;95.20;;;;;;4937157;29;20590;-71
2023/03/31 10:35:31;;;;;;;0.70;0.70;;;4.80;96.20;;;;;;4936600;29;20198;-71
2023/03/31 10:38:03;;;;;;;0.77;0.77;;;4.90;96.50;;;;;;4939863;28;20474;-72
2023/03/31 10:40:31;;;;;;;0.60;0.60;;;4.90;96.40;;;;;;4977156;28;20188;-71
2023/03/31 10:43:19;;;;;;;0.70;0.70;;;5.30;95.10;;;;;;4977412;28;20290;-72
2023/03/31 10:45:51;;;;;;;0.60;0.60;;;5.60;95.00;;;;;;4959664;28;20200;-72
2023/03/31 10:48:33;;;;;;;0.70;0.70;;;6.30;95.20;;;;;;4976883;28;20192;-74
2023/03/31 10:51:12;;;;;;;0.70;0.70;;;6.40;94.30;;;;;;4977129;28;20195;-71
2023/03/31 10:53:42;;;;;;;0.70;0.70;;;6.30;93.00;;;;;;4975392;28;20214;-72
2023/03/31 10:56:27;;;;;;;0.70;0.70;;;6.20;93.10;;;;;;4990552;28;20651;-71
2023/03/31 10:59:01;;;;;;;0.68;0.68;;;6.40;92.60;;;;;;4996316;28;20670;-71
2023/03/31 11:01:48;;;;;;;0.57;0.57;;;6.50;93.20;;;;;;4978372;28;20210;-72
2023/03/31 11:04:51;;;;;;;0.70;0.70;;;6.60;93.00;;;;;;4985703;28;20665;-72
2023/03/31 11:07:49;;;;;;;0.70;0.70;;;6.10;91.90;;;;;;4995833;28;20213;-72
2023/03/31 11:10:35;;;;;;;0.70;0.70;;;6.30;92.40;;;;;;4996072;28;20203;-72
2023/03/31 11:13:22;;;;;;;0.60;0.60;;;6.50;93.00;;;;;;4996279;28;20237;-72
2023/03/31 11:15:55;;;;;;;0.70;0.70;;;6.90;93.50;;;;;;4996175;28;20538;-72
2023/03/31 11:18:36;;;;;;;0.60;0.60;;;7.20;91.60;;;;;;4975941;28;20293;-71
2023/03/31 11:21:22;;;;;;;0.70;0.70;;;6.90;92.30;;;;;;4996092;28;20191;-71
2023/03/31 11:24:12;;;;;;;0.60;0.60;;;6.80;93.10;;;;;;4978436;28;20226;-72
2023/03/31 11:26:58;;;;;;;0.70;0.70;;;6.80;93.40;;;;;;4978073;28;20281;-71
2023/03/31 11:29:39;;;;;;;0.70;0.70;;;6.50;92.70;;;;;;4978300;28;21016;-71
2023/03/31 11:32:32;;;;;;;0.60;0.60;;;6.70;93.40;;;;;;4995679;28;20200;-70
2023/03/31 11:35:43;;;;;;;0.60;0.60;;;6.80;92.40;;;;;;4995695;28;20217;-70
2023/03/31 11:38:26;;;;;;;0.60;0.60;;;6.60;92.30;;;;;;4972297;28;20210;-70
2023/03/31 11:41:00;;;;;;;0.60;0.60;;;7.00;92.80;;;;;;4995624;28;20183;-70
2023/03/31 11:43:35;;;;;;;0.70;0.70;;;7.30;91.30;;;;;;4995414;28;20275;-71
2023/03/31 11:46:06;;;;;;;0.60;0.60;;;7.50;92.00;;;;;;4995267;28;20195;-70
2023/03/31 11:49:02;;;;;;;0.70;0.70;;;7.30;87.00;;;;;;4995470;28;20207;-70
2023/03/31 11:51:37;;;;;;;0.85;0.85;;;7.60;87.10;;;;;;4994834;28;20266;-71
2023/03/31 11:54:10;;;;;;;0.60;0.60;;;7.50;88.50;;;;;;4994689;28;20678;-70
2023/03/31 11:56:39;;;;;;;1.85;1.25;;;7.50;89.30;;;;;;4994538;28;20554;-70
2023/03/31 11:59:06;;;;;;;0.60;0.60;;;7.60;85.00;;;;;;4995429;28;20191;-72
2023/03/31 12:02:13;;;;;;;0.70;0.70;;;8.00;86.50;;;;;;4994857;28;20211;-71
2023/03/31 12:04:48;;;;;;;0.63;0.63;;;8.00;84.50;;;;;;4953576;29;20383;-71
2023/03/31 12:07:23;;;;;;;0.60;0.60;;;7.80;85.30;;;;;;4954100;29;20215;-72
2023/03/31 12:10:17;;;;;;;0.60;0.60;;;7.60;85.80;;;;;;4978753;28;20234;-71
2023/03/31 12:12:56;;;;;;;0.65;0.65;;;8.00;88.00;;;;;;4992913;28;20675;-72
2023/03/31 12:15:26;;;;;;;0.60;0.60;;;8.00;85.10;;;;;;4994522;28;20219;-71
2023/03/31 12:18:00;;;;;;;0.93;0.80;;;7.80;83.60;;;;;;4993616;28;20737;-71
2023/03/31 12:20:41;;;;;;;0.70;0.70;;;7.50;79.90;;;;;;4994572;28;20198;-71
2023/03/31 12:23:18;;;;;;;0.60;0.60;;;6.90;77.70;;;;;;4994672;28;20207;-71
2023/03/31 12:25:58;;;;;;;0.60;0.60;;;6.80;81.20;;;;;;4994377;28;20195;-71
2023/03/31 12:28:26;;;;;;;0.70;0.70;;;6.90;77.30;;;;;;4994161;28;20207;-72
2023/03/31 12:30:55;;;;;;;0.60;0.60;;;6.30;78.50;;;;;;4994630;28;20188;-71
2023/03/31 12:33:27;;;;;;;0.70;0.70;;;6.70;76.10;;;;;;4994208;28;20203;-71
2023/03/31 12:36:12;;;;;;;0.68;0.68;;;6.50;76.00;;;;;;4994470;28;20286;-71
2023/03/31 12:38:55;;;;;;;0.60;0.60;;;6.50;76.60;;;;;;4994232;28;20191;-70
2023/03/31 12:41:54;;;;;;;0.70;0.70;;;6.80;79.60;;;;;;4994203;28;20203;-71
2023/03/31 12:44:37;;;;;;;0.63;0.63;;;6.70;74.90;;;;;;4993985;28;20567;-70
2023/03/31 12:47:12;;;;;;;1.02;1.02;;;6.80;75.90;;;;;;4993773;28;20682;-70
2023/03/31 12:49:56;;;;;;;0.70;0.70;;;6.90;78.80;;;;;;4994047;28;20222;-71
2023/03/31 12:52:56;;;;;;;0.70;0.70;;;7.00;76.10;;;;;;4993792;28;20195;-71
2023/03/31 12:55:48;;;;;;;0.70;0.70;;;7.40;76.70;;;;;;4973159;28;20195;-70
2023/03/31 12:58:27;;;;;;;0.70;0.70;;;7.50;78.40;;;;;;4954557;28;20211;-71
2023/03/31 13:01:22;;;;;;;0.60;0.60;;;7.60;77.10;;;;;;4974633;28;20620;-71
2023/03/31 13:03:49;;;;;;;0.60;0.60;;;7.60;77.00;;;;;;4974184;28;20303;-71
2023/03/31 13:06:27;;;;;;;0.60;0.60;;;7.40;78.10;;;;;;4974723;28;20239;-70
2023/03/31 13:08:56;;;;;;;0.70;0.70;;;6.90;78.90;;;;;;4974583;28;20219;-70
2023/03/31 13:11:35;;;;;;;0.68;0.68;;;6.80;78.40;;;;;;4969694;28;20199;-70
2023/03/31 13:14:18;;;;;;;0.70;0.70;;;6.80;78.90;;;;;;4969574;28;20187;-70
2023/03/31 13:16:45;;;;;;;0.70;0.70;;;7.00;81.10;;;;;;4994797;28;20194;-70
2023/03/31 13:19:26;;;;;;;0.70;0.70;;;7.10;78.10;;;;;;5011803;28;20198;-70
2023/03/31 13:21:53;;;;;;;0.70;0.70;;;7.10;79.70;;;;;;5013506;28;20194;-71